Terminal Aerodrome Forecast
Issued by NWS Binghamton, NY

Home | Current Version | Previous Version | Text Only | Print | Product List | Glossary On
Versions: 1 2 3 4 5 6 7 8 9 10 11 12 13 14 15 16
000
FTUS41 KBGM 121100
TAFSYR
TAF
KSYR 121133Z 1212/1312 VRB03KT P6SM SCT060
     FM121400 22007KT P6SM SCT050
     FM130000 VRB03KT P6SM SCT250
     FM131000 18004KT P6SM BKN100=

USA.gov is the U.S. government's official web portal to all federal, state and local government web resources and services.